Araxos, Greece

8:39 AM EEST on October 25, 2014 (GMT +0300)
Araxos Air Base | Change Station
CLOSE
Current Station
Airport
Location: Araxos,
Elevation: 49 ft
Nearby Weather Stations
Active Advisory: Thunderstorms

Elev 49 ft 38.15 °N, 21.43 °E | Updated 19 minutes ago

Mostly Cloudy
Mostly Cloudy
55 °F
Feels Like 55 °F
N
0
Wind Variable Wind from North

Today
High -- | Low -- °F
--% Chance of Precip.
Yesterday
High -- | Low -- °F
Precip. -- in
7:52 AM 6:43 PM
New Moon, 2% visible
Pressure 29.77 in
Visibility 6.2 miles
Clouds Scattered Clouds 1500 ft
Mostly Cloudy 2000 ft
Mostly Cloudy 8000 ft
Dew Point 55 °F
Humidity 100%
Rainfall 0.00 in
Snow Depth Not available.
UV 0 out of 12
Pollen Not available.
Air Quality Not available.
Flu Activity Not available.
METAR LGRX 250520Z 00000KT 9999 SCT015 BKN020 BKN080 13/13 Q1008

More Conditions Fewer Conditions

Pressure 29.77 in
Visibility 6.2 miles
Clouds Scattered Clouds 1500 ft
Mostly Cloudy 2000 ft
Mostly Cloudy 8000 ft
Dew Point 55 °F
Humidity 100%
Rainfall 0.00 in
Snow Depth Not available.
UV 0 out of 12
Pollen Not available.
Air Quality Not available.
Flu Activity Not available.
METAR LGRX 250520Z 00000KT 9999 SCT015 BKN020 BKN080 13/13 Q1008

More Conditions Fewer Conditions

10-Day Weather Forecast

Almanac

Astronomy

Oct. 25, 2014 Rise Set
Actual Time 7:52 AM EEST 6:43 PM EEST
Civil Twilight 7:25 AM EEST 7:10 PM EEST
Nautical Twilight 6:54 AM EEST 7:41 PM EEST
Astronomical Twilight 6:24 AM EEST 8:11 PM EEST
Moon 9:12 AM EEST 7:53 PM EEST
Length of Visible Light 11h 44m
Length of Day
10h 50m
Tomorrow will be 2m 16s shorter.
New Moon, 2% of the Moon is Illuminated
Today
New Moon
Oct 30
First Quarter
Nov 6
Full
Nov 14
Last Quarter
Nov 22
New

Yesterday's Extremes

Country Highs Country Lows

Community

WunderPhotos

Upload Photos

1,764,785 photos uploaded!

Nearby

Snow Depth

Not available.

Earthquake Activity

City Distance Mag. Time & Date
No recent earthquake activity has been reported nearby.
Minimum magnitude displayed is 2.5.

Coastal Water Temperatures

Place Temperature
No Stations Reporting

Nearby Weather Stations